^^
Station Historical Data
 
Daily Summary for November 24, 2017 Units:  English    Metric   Both
« Previous Day
Next Day »
Daily Weekly Monthly Yearly Custom
  Current: High: Low: Average:
Temperature: 54.2 °F 56.1 °F 54.2 °F 55.4 °F
Dew Point: 34.4 °F 35.1 °F 34.1 °F 34.7 °F
Humidity: 47% 47% 45% 46%
Wind Speed: 8.1mph 13.8mph 3.5mph 8.2mph
Wind Gust: 8.1mph 13.8mph - -
WindSouth - - SSW
Pressure: 29.76 in 29.83 in 29.76 in -
Precipitation: 0.00 in      
Historical Graphs
 
 
Tabular Data for November 24, 2017
Time Temperature Dew Point Pressure Wind Wind Speed Wind Gust Humidity Rainfall Rate (Hourly)
00:01 56.1 °F 35.0 °F 29.82 in South 4.6 mph 4.6 mph 45% 0.00 in
00:06 56.1 °F 35.0 °F 29.83 in SW 13.8 mph 13.8 mph 45% 0.00 in
00:11 56.0 °F 34.9 °F 29.83 in SSW 6.9 mph 6.9 mph 45% 0.00 in
00:16 55.9 °F 34.8 °F 29.83 in South 11.0 mph 11.0 mph 45% 0.00 in
00:21 55.9 °F 34.8 °F 29.83 in South 8.0 mph 8.0 mph 45% 0.00 in
00:31 55.7 °F 34.7 °F 29.82 in WSW 10.4 mph 10.4 mph 45% 0.00 in
00:36 55.5 °F 35.0 °F 29.82 in SSW 3.5 mph 3.5 mph 46% 0.00 in
00:41 55.3 °F 34.9 °F 29.82 in South 3.5 mph 3.5 mph 46% 0.00 in
00:48 55.3 °F 34.9 °F 29.81 in SSW 11.5 mph 11.5 mph 46% 0.00 in
00:53 55.4 °F 34.9 °F 29.81 in SW 9.2 mph 9.2 mph 46% 0.00 in
00:58 55.6 °F 35.1 °F 29.80 in SSE 5.0 mph 5.0 mph 46% 0.00 in
01:03 55.7 °F 34.7 °F 29.80 in SW 8.1 mph 8.1 mph 45% 0.00 in
01:08 55.8 °F 34.8 °F 29.80 in South 6.9 mph 6.9 mph 45% 0.00 in
01:14 55.8 °F 34.8 °F 29.80 in SSW 8.1 mph 8.1 mph 45% 0.00 in
01:19 56.0 °F 34.9 °F 29.80 in South 10.4 mph 10.4 mph 45% 0.00 in
01:24 56.0 °F 34.9 °F 29.79 in SW 8.1 mph 8.1 mph 45% 0.00 in
01:34 55.5 °F 34.5 °F 29.79 in South 8.1 mph 8.1 mph 45% 0.00 in
01:44 55.2 °F 34.8 °F 29.79 in SSW 4.6 mph 4.6 mph 46% 0.00 in
01:50 55.3 °F 34.9 °F 29.78 in South 6.9 mph 6.9 mph 46% 0.00 in
01:55 55.2 °F 34.8 °F 29.78 in South 9.2 mph 9.2 mph 46% 0.00 in
02:01 55.0 °F 34.6 °F 29.78 in WSW 11.5 mph 11.5 mph 46% 0.00 in
02:06 54.8 °F 34.9 °F 29.78 in South 5.0 mph 5.0 mph 47% 0.00 in
02:11 54.8 °F 34.4 °F 29.78 in SSE 9.2 mph 9.2 mph 46% 0.00 in
02:16 54.8 °F 34.4 °F 29.77 in South 11.5 mph 11.5 mph 46% 0.00 in
02:27 54.7 °F 34.3 °F 29.77 in South 11.0 mph 11.0 mph 46% 0.00 in
02:32 54.9 °F 34.5 °F 29.77 in SSE 9.0 mph 9.0 mph 46% 0.00 in
02:37 54.8 °F 34.4 °F 29.77 in SSW 10.4 mph 10.4 mph 46% 0.00 in
02:42 54.7 °F 34.3 °F 29.77 in South 5.0 mph 5.0 mph 46% 0.00 in
02:47 54.5 °F 34.1 °F 29.77 in South 6.9 mph 6.9 mph 46% 0.00 in
02:58 54.2 °F 34.4 °F 29.76 in South 8.1 mph 8.1 mph 47% 0.00 in
Live Lenexa Weather
Compliments of Weather Underground - 1 mb